Hauptseite
METAR-TAF:

METAR-TAF

Flughäfen :

Nordholz, Deutschland

Fliegerhorst Nordholz

Breite: 53-46N, Länge: 008-40E, Höhe: 23 m

Beobachtung

Neuester Wetterbericht von vor 32 Minuten, um 11:20 UTC
Wind 10 kt aus Südost
Temperatur 26°C
Luftfeuchtigkeit 39%
Luftdruck 1020 hPa
Sichtweite 10 km oder mehr

METAR: ETMN 271120Z 14010KT 9999 26/11 Q1020 BLU+

Zeit: 13:52 (11:52 UTC)


TAF: fehlend

Wetterbeobachtungen und Prognosen von mehr als 4000 Flughäfen (METAR und TAF Bericht).

Die verfügbaren Stationen werden durch gelbe und rote Markierungen auf der Karte dargestellt.

Führen Sie die Maus auf sie, um den Namen der Station zu sehen.

Darauf klicken, um die Beobachtung von Wetterbeobachtungen und Prognosen zu sehen.

Um die Karte zu ändern : klicken Sie auf den grünen Tasten mit einem schwarzen Kreuz Zum Vergrößern, auf den grünen Button mit einem Gedankenstrich zu verkleinern, oder auf die grünen Pfeile für benachbarte Karten.


METAR-TAF: